Time;durP1;ratioP1;P1;durP2;ratioP2;P2;SDS_P1;SDS_P2;PMS_P1;PMS_P2;Temp;Humidity;BMP_temperature;BMP_pressure;BME280_temperature;BME280_humidity;BME280_pressure;Samples;Min_cycle;Max_cycle;Signal;HPM_P1;HPM_P2
2020/12/12 00:00:14;;;;;;;15.20;6.90;;;;;;;3.30;82.74;98400.63;4897949;29;20063;-71
2020/12/12 00:02:41;;;;;;;18.65;8.20;;;;;;;3.29;83.23;98398.94;4899052;29;20084;-71
2020/12/12 00:05:10;;;;;;;17.65;7.22;;;;;;;3.32;83.22;98401.50;4898981;29;20072;-71
2020/12/12 00:07:38;;;;;;;19.17;8.43;;;;;;;3.30;83.35;98398.13;4898838;29;20139;-71
2020/12/12 00:10:06;;;;;;;17.20;8.32;;;;;;;3.29;83.04;98391.38;4897766;29;20045;-70
2020/12/12 00:12:35;;;;;;;20.77;8.15;;;;;;;3.25;82.92;98379.59;4898810;29;20495;-70
2020/12/12 00:15:05;;;;;;;16.90;7.45;;;;;;;3.29;83.19;98381.28;4898919;29;20116;-71
2020/12/12 00:17:34;;;;;;;14.00;6.90;;;;;;;3.29;83.16;98376.25;4899110;29;20048;-71
2020/12/12 00:20:02;;;;;;;18.30;7.55;;;;;;;3.23;83.62;98381.25;4898886;29;20487;-70
2020/12/12 00:22:29;;;;;;;18.17;8.35;;;;;;;3.21;83.71;98380.41;4898565;29;20048;-71
2020/12/12 00:25:10;;;;;;;18.27;8.25;;;;;;;3.15;83.97;98372.78;4899111;29;20506;-71
2020/12/12 00:27:37;;;;;;;15.02;7.15;;;;;;;3.24;83.24;98378.75;4898419;29;20052;-70
2020/12/12 00:30:06;;;;;;;18.60;7.97;;;;;;;3.25;83.36;98379.59;4898676;29;20049;-70
2020/12/12 00:32:35;;;;;;;19.85;8.93;;;;;;;3.15;83.63;98355.16;4898479;29;20428;-71
2020/12/12 00:35:02;;;;;;;18.45;8.57;;;;;;;2.74;83.18;98289.34;4898670;29;20052;-71
2020/12/12 00:37:30;;;;;;;20.05;7.72;;;;;;;3.26;84.10;98381.28;4897390;29;20097;-71
2020/12/12 00:39:58;;;;;;;19.70;8.95;;;;;;;3.19;83.76;98369.47;4898071;29;20045;-71
2020/12/12 00:42:26;;;;;;;20.52;8.32;;;;;;;3.17;83.38;98358.53;4898532;29;20167;-71
2020/12/12 00:44:53;;;;;;;16.88;7.68;;;;;;;3.24;83.35;98370.34;4897191;29;20044;-71
2020/12/12 00:47:21;;;;;;;17.50;7.40;;;;;;;3.24;83.04;98372.84;4898511;29;20055;-71
2020/12/12 00:49:52;;;;;;;19.17;8.05;;;;;;;3.23;82.70;98371.19;4897265;29;20178;-71
2020/12/12 00:52:21;;;;;;;16.90;7.25;;;;;;;3.11;83.55;98355.97;4897288;29;20067;-71
2020/12/12 00:54:49;;;;;;;18.25;7.45;;;;;;;3.19;82.67;98369.47;4897113;29;20049;-71
2020/12/12 00:57:18;;;;;;;18.40;8.35;;;;;;;3.16;83.27;98366.94;4897147;29;20495;-70
2020/12/12 00:59:45;;;;;;;17.08;7.60;;;;;;;3.14;82.77;98366.09;4898318;29;20066;-70
2020/12/12 01:02:13;;;;;;;17.17;6.82;;;;;;;3.15;83.47;98365.22;4898388;29;20053;-70
2020/12/12 01:04:41;;;;;;;16.65;7.75;;;;;;;3.17;83.06;98371.97;4898141;29;20044;-70
2020/12/12 01:07:10;;;;;;;17.65;7.47;;;;;;;3.11;83.18;98361.00;4898358;29;20055;-70
2020/12/12 01:09:38;;;;;;;16.67;7.25;;;;;;;3.16;83.20;98367.78;4898338;29;20124;-70
2020/12/12 01:12:05;;;;;;;16.67;7.43;;;;;;;3.17;83.27;98361.03;4898178;29;20059;-70
2020/12/12 01:14:35;;;;;;;14.98;6.85;;;;;;;3.16;83.36;98354.34;4898312;29;20519;-72
2020/12/12 01:17:03;;;;;;;16.23;6.95;;;;;;;3.23;82.88;98356.91;4898140;29;20075;-71
2020/12/12 01:19:43;;;;;;;17.85;7.63;;;;;;;3.17;83.05;98348.44;4898527;29;20131;-71
2020/12/12 01:22:12;;;;;;;17.13;7.97;;;;;;;3.06;83.27;98337.44;4898074;29;20053;-70
2020/12/12 01:24:40;;;;;;;18.33;7.75;;;;;;;3.19;82.91;98354.38;4898163;29;20063;-70
2020/12/12 01:27:09;;;;;;;18.13;7.43;;;;;;;3.21;82.56;98356.06;4897879;29;20055;-70
2020/12/12 01:29:37;;;;;;;16.92;7.07;;;;;;;3.20;83.58;98366.09;4898144;29;20060;-71
2020/12/12 01:32:05;;;;;;;17.75;7.30;;;;;;;3.10;83.15;98344.19;4898026;29;20048;-72
2020/12/12 01:34:33;;;;;;;17.30;7.60;;;;;;;3.21;83.75;98357.72;4898135;29;20124;-72
2020/12/12 01:37:01;;;;;;;17.85;8.20;;;;;;;3.26;82.97;98346.81;4898068;29;20131;-72
2020/12/12 01:39:29;;;;;;;16.80;7.03;;;;;;;3.21;83.33;98338.41;4898031;29;20059;-72
2020/12/12 01:41:57;;;;;;;15.57;7.68;;;;;;;3.28;83.05;98335.09;4898300;29;20058;-71
2020/12/12 01:44:25;;;;;;;17.25;7.72;;;;;;;3.35;83.30;98341.88;4897904;29;20076;-72
2020/12/12 01:46:53;;;;;;;15.50;7.45;;;;;;;3.34;82.55;98344.34;4897999;29;20071;-72
2020/12/12 01:49:21;;;;;;;16.42;6.97;;;;;;;3.26;82.62;98330.88;4897949;29;20056;-72
2020/12/12 01:51:49;;;;;;;15.30;6.53;;;;;;;3.33;82.58;98332.59;4897769;29;20048;-72
2020/12/12 01:54:17;;;;;;;12.77;6.15;;;;;;;3.41;82.27;98333.47;4901585;29;20502;-71
2020/12/12 01:56:47;;;;;;;14.25;6.75;;;;;;;3.36;82.35;98337.63;4901378;29;20040;-72
2020/12/12 01:59:19;;;;;;;13.40;6.35;;;;;;;3.24;82.64;98320.78;4901257;29;20136;-72
2020/12/12 02:01:47;;;;;;;16.52;7.20;;;;;;;3.35;82.21;98330.94;4901294;29;20048;-72
2020/12/12 02:04:18;;;;;;;14.70;6.70;;;;;;;3.35;82.42;98335.97;4901067;29;20067;-72
2020/12/12 02:06:48;;;;;;;14.02;6.55;;;;;;;3.39;82.65;98327.59;4901252;29;20051;-72
2020/12/12 02:09:16;;;;;;;14.35;6.05;;;;;;;3.32;82.06;98316.63;4899891;29;20051;-72
2020/12/12 02:11:43;;;;;;;14.38;6.82;;;;;;;3.31;82.48;98324.19;4901083;29;20057;-71
2020/12/12 02:14:23;;;;;;;15.43;6.45;;;;;;;3.18;82.53;98302.25;4901123;29;20048;-72
2020/12/12 02:16:52;;;;;;;12.70;5.57;;;;;;;3.34;82.51;98324.19;4901019;29;20418;-72
2020/12/12 02:19:20;;;;;;;14.20;6.35;;;;;;;3.30;82.26;98322.50;4900921;29;20052;-71
2020/12/12 02:21:53;;;;;;;13.60;6.40;;;;;;;3.29;82.66;98310.72;4900866;29;20101;-72
2020/12/12 02:24:21;;;;;;;13.25;5.90;;;;;;;3.23;82.27;98300.59;4900846;29;20044;-72
2020/12/12 02:26:49;;;;;;;14.93;6.00;;;;;;;3.21;82.25;98297.25;4901016;29;20112;-72
2020/12/12 02:29:39;;;;;;;12.27;5.45;;;;;;;3.27;81.96;98302.31;4900891;29;20385;-72
2020/12/12 02:32:07;;;;;;;13.63;5.50;;;;;;;3.23;82.47;98310.69;4900766;29;20061;-72
2020/12/12 02:34:35;;;;;;;11.80;5.63;;;;;;;3.21;82.76;98312.38;4900745;29;20052;-72
2020/12/12 02:37:05;;;;;;;15.02;6.28;;;;;;;3.18;82.29;98302.25;4900612;29;20047;-72
2020/12/12 02:39:33;;;;;;;12.82;5.85;;;;;;;3.25;82.73;98303.97;4900632;29;20559;-72
2020/12/12 02:42:01;;;;;;;11.05;5.70;;;;;;;3.25;81.91;98298.94;4900422;29;20044;-72
2020/12/12 02:44:39;;;;;;;12.20;6.07;;;;;;;3.15;81.99;98289.63;4900610;29;20418;-72
2020/12/12 02:47:07;;;;;;;12.52;6.57;;;;;;;3.27;82.16;98297.25;4900332;29;20080;-72
2020/12/12 02:49:35;;;;;;;13.10;5.47;;;;;;;3.27;82.23;98297.25;4900467;29;20068;-72
2020/12/12 02:52:03;;;;;;;16.48;6.43;;;;;;;2.81;81.99;98230.63;4900413;29;20571;-72
2020/12/12 02:54:31;;;;;;;13.15;5.63;;;;;;;3.21;82.06;98297.25;4900333;29;20049;-72
2020/12/12 02:56:59;;;;;;;11.95;6.22;;;;;;;3.22;82.16;98309.00;4900563;29;20100;-72
2020/12/12 02:59:27;;;;;;;11.93;5.28;;;;;;;3.21;82.09;98294.72;4900177;29;20155;-72
2020/12/12 03:01:55;;;;;;;12.93;5.95;;;;;;;3.27;81.81;98302.31;4900935;29;20087;-72
2020/12/12 03:04:22;;;;;;;13.20;6.18;;;;;;;3.23;82.13;98295.56;4899507;29;20040;-71
2020/12/12 03:06:50;;;;;;;12.07;5.35;;;;;;;3.19;82.01;98288.84;4900374;29;20451;-72
2020/12/12 03:09:18;;;;;;;13.45;6.35;;;;;;;3.30;81.63;98307.38;4899953;29;20063;-72
2020/12/12 03:11:47;;;;;;;15.20;6.10;;;;;;;3.29;82.19;98310.72;4900334;29;20048;-71
2020/12/12 03:14:15;;;;;;;14.95;5.85;;;;;;;3.35;82.16;98310.75;4899823;29;20048;-71
2020/12/12 03:16:43;;;;;;;12.52;6.03;;;;;;;2.93;81.71;98240.78;4899938;29;20036;-72
2020/12/12 03:19:12;;;;;;;12.13;5.55;;;;;;;3.36;81.93;98312.44;4900062;29;20096;-72
2020/12/12 03:21:39;;;;;;;12.15;5.40;;;;;;;3.34;81.81;98306.53;4899854;29;20053;-72
2020/12/12 03:24:07;;;;;;;12.98;5.20;;;;;;;3.31;82.22;98309.06;4899546;29;20062;-71
2020/12/12 03:26:35;;;;;;;11.45;5.30;;;;;;;3.30;81.83;98307.38;4899590;29;20058;-72
2020/12/12 03:29:03;;;;;;;12.60;4.93;;;;;;;3.33;82.41;98300.69;4899648;29;20131;-71
2020/12/12 03:31:31;;;;;;;13.23;6.17;;;;;;;3.34;82.40;98304.00;4899651;29;20049;-71
2020/12/12 03:33:59;;;;;;;12.35;6.10;;;;;;;3.37;82.23;98304.03;4899601;29;20061;-71
2020/12/12 03:36:27;;;;;;;9.82;5.07;;;;;;;3.40;81.58;98293.97;4899495;29;20108;-72
2020/12/12 03:38:55;;;;;;;15.93;6.35;;;;;;;3.39;82.41;98309.94;4899480;29;20049;-72
2020/12/12 03:41:23;;;;;;;13.90;6.00;;;;;;;3.34;82.31;98302.34;4899412;29;20065;-72
2020/12/12 03:43:51;;;;;;;10.80;4.97;;;;;;;3.22;81.26;98291.34;4899420;29;20053;-72
2020/12/12 03:46:20;;;;;;;13.00;6.50;;;;;;;3.26;82.08;98303.97;4899256;29;20463;-72
2020/12/12 03:48:48;;;;;;;12.15;5.65;;;;;;;3.30;81.25;98292.25;4899383;29;20049;-72
2020/12/12 03:51:16;;;;;;;12.75;5.47;;;;;;;3.25;81.59;98289.69;4899178;29;20048;-72
2020/12/12 03:53:44;;;;;;;11.45;5.45;;;;;;;3.30;81.31;98300.66;4899297;29;20139;-72
2020/12/12 03:56:14;;;;;;;11.13;5.00;;;;;;;3.33;80.79;98292.28;4899106;29;20068;-72
2020/12/12 03:58:42;;;;;;;9.23;4.37;;;;;;;3.30;81.08;98292.25;4899480;29;20378;-72
2020/12/12 04:01:10;;;;;;;9.52;4.45;;;;;;;3.26;81.56;98285.50;4899110;29;20362;-72
2020/12/12 04:03:39;;;;;;;10.30;5.18;;;;;;;3.25;80.89;98283.81;4898990;29;20052;-72
2020/12/12 04:06:07;;;;;;;9.70;4.43;;;;;;;3.25;80.73;98279.63;4899345;29;20080;-71
2020/12/12 04:08:35;;;;;;;10.20;4.63;;;;;;;3.33;80.42;98297.31;4899017;29;20563;-72
2020/12/12 04:11:03;;;;;;;10.57;4.25;;;;;;;2.91;80.96;98227.34;4898905;29;20051;-72
2020/12/12 04:13:31;;;;;;;8.18;4.20;;;;;;;3.33;80.28;98302.34;4899076;29;20052;-72
2020/12/12 04:16:00;;;;;;;10.13;4.15;;;;;;;3.33;80.98;98292.28;4898181;29;20050;-72
2020/12/12 04:18:28;;;;;;;9.15;4.20;;;;;;;3.31;80.46;98283.84;4898795;29;20045;-72
2020/12/12 04:20:56;;;;;;;8.98;4.20;;;;;;;2.46;80.17;98146.47;4898830;29;20500;-72
2020/12/12 04:23:24;;;;;;;8.68;4.50;;;;;;;3.27;80.91;98288.03;4898617;29;20372;-71
2020/12/12 04:25:52;;;;;;;7.90;3.97;;;;;;;3.13;80.31;98261.91;4898614;29;20048;-72
2020/12/12 04:28:20;;;;;;;10.82;5.03;;;;;;;3.28;80.13;98283.84;4898605;29;20055;-72
2020/12/12 04:30:48;;;;;;;10.50;4.93;;;;;;;3.25;80.23;98278.75;4898715;29;20123;-71
2020/12/12 04:33:16;;;;;;;11.68;4.90;;;;;;;3.24;80.68;98272.03;4898868;29;20100;-72
2020/12/12 04:35:44;;;;;;;9.70;4.93;;;;;;;3.30;80.40;98277.13;4898695;29;20092;-71
2020/12/12 04:38:13;;;;;;;10.02;4.82;;;;;;;3.24;80.36;98272.03;4898578;29;20447;-71
2020/12/12 04:40:40;;;;;;;11.18;4.80;;;;;;;3.27;80.69;98261.97;4898938;29;20113;-72
2020/12/12 04:43:08;;;;;;;10.63;4.70;;;;;;;3.33;80.22;98272.94;4898491;29;20044;-72
2020/12/12 04:45:37;;;;;;;9.35;4.70;;;;;;;3.09;80.74;98236.69;4898827;29;20045;-72
2020/12/12 04:48:04;;;;;;;8.45;4.20;;;;;;;3.42;80.76;98287.25;4898468;29;20449;-72
2020/12/12 04:50:32;;;;;;;8.63;4.03;;;;;;;2.97;80.48;98206.38;4898426;29;20402;-72
2020/12/12 04:53:12;;;;;;;9.32;4.30;;;;;;;3.44;80.54;98274.66;4898382;29;20507;-72
2020/12/12 04:55:43;;;;;;;8.50;4.38;;;;;;;3.22;80.35;98230.84;4898376;29;20559;-72
2020/12/12 04:58:14;;;;;;;8.05;3.90;;;;;;;3.47;80.70;98275.53;4898510;29;20072;-72
2020/12/12 05:00:45;;;;;;;;;;;;;;;3.41;79.99;98270.44;4898701;29;20448;-71
2020/12/12 05:03:14;;;;;;;7.53;3.95;;;;;;;3.37;80.11;98278.84;4898500;29;19943;-72
2020/12/12 05:05:41;;;;;;;7.68;3.85;;;;;;;3.38;80.46;98272.97;4898184;29;20056;-72
2020/12/12 05:08:09;;;;;;;8.25;3.83;;;;;;;3.35;80.31;98271.28;4898322;29;20041;-72
2020/12/12 05:10:39;;;;;;;8.25;3.90;;;;;;;3.23;80.11;98256.09;4898208;29;20049;-71
2020/12/12 05:13:14;;;;;;;7.63;3.97;;;;;;;3.23;80.22;98255.22;4897648;29;20184;-71
2020/12/12 05:15:42;;;;;;;7.28;3.90;;;;;;;3.34;80.72;98263.69;4898309;29;20056;-72
2020/12/12 05:18:10;;;;;;;8.38;4.00;;;;;;;3.29;79.86;98260.28;4898263;29;20056;-72
2020/12/12 05:20:38;;;;;;;10.00;4.25;;;;;;;3.30;80.28;98254.44;4898211;29;20061;-72
2020/12/12 05:23:11;;;;;;;8.93;4.22;;;;;;;3.35;79.84;98262.84;4898147;29;20052;-71
2020/12/12 05:25:40;;;;;;;7.80;3.80;;;;;;;3.42;80.20;98262.06;4898043;29;20095;-72
2020/12/12 05:28:09;;;;;;;8.63;4.43;;;;;;;3.39;80.22;98256.97;4901598;29;20104;-71
2020/12/12 05:30:37;;;;;;;10.60;4.90;;;;;;;3.24;79.74;98236.75;4901916;29;20048;-72
2020/12/12 05:33:05;;;;;;;10.13;4.50;;;;;;;3.44;79.69;98250.28;4901703;29;20140;-72
2020/12/12 05:35:33;;;;;;;8.20;3.83;;;;;;;3.41;80.24;98255.31;4901794;29;20104;-71
2020/12/12 05:38:01;;;;;;;9.40;4.18;;;;;;;3.03;79.66;98196.31;4901559;29;20049;-71
2020/12/12 05:40:29;;;;;;;8.75;4.68;;;;;;;3.39;80.20;98246.91;4901982;29;20048;-71
2020/12/12 05:43:00;;;;;;;9.20;4.25;;;;;;;3.44;80.09;98260.38;4900541;29;20131;-71
2020/12/12 05:45:28;;;;;;;7.43;4.10;;;;;;;3.45;80.01;98261.22;4901534;29;20048;-72
2020/12/12 05:47:56;;;;;;;8.85;4.18;;;;;;;3.44;79.66;98260.38;4901528;29;20053;-72
2020/12/12 05:50:24;;;;;;;8.07;3.92;;;;;;;3.38;79.63;98263.69;4901472;29;20045;-72
2020/12/12 05:52:52;;;;;;;8.63;4.00;;;;;;;3.32;79.85;98256.13;4901472;29;20040;-71
2020/12/12 05:55:22;;;;;;;7.22;3.63;;;;;;;3.38;80.33;98255.31;4901347;29;20047;-71
2020/12/12 05:57:52;;;;;;;6.53;3.35;;;;;;;3.36;79.87;98262.00;4901376;29;20075;-72
2020/12/12 06:00:21;;;;;;;8.00;4.13;;;;;;;3.08;79.28;98209.78;4901787;29;20060;-72
2020/12/12 06:02:52;;;;;;;6.78;3.47;;;;;;;3.36;80.11;98256.97;4901347;29;20547;-72
2020/12/12 06:05:26;;;;;;;7.28;3.80;;;;;;;3.41;79.27;98265.41;4901084;29;20452;-71
2020/12/12 06:07:56;;;;;;;7.15;3.58;;;;;;;3.15;80.22;98266.94;4901324;29;20060;-71
2020/12/12 06:10:26;;;;;;;6.05;3.60;;;;;;;3.22;79.59;98266.13;4901081;29;20061;-72
2020/12/12 06:12:58;;;;;;;7.00;3.55;;;;;;;3.11;80.51;98266.09;4901203;29;20587;-72
2020/12/12 06:15:34;;;;;;;6.10;3.45;;;;;;;3.12;80.08;98266.94;4901047;29;20052;-72
2020/12/12 06:18:21;;;;;;;6.40;3.28;;;;;;;3.13;81.01;98266.09;4901101;29;20053;-72
2020/12/12 06:20:51;;;;;;;8.23;3.50;;;;;;;3.10;81.32;98263.53;4900908;29;20063;-71
2020/12/12 06:23:19;;;;;;;6.88;3.13;;;;;;;2.91;81.32;98261.75;4900977;29;20067;-72
2020/12/12 06:25:47;;;;;;;7.38;3.55;;;;;;;2.92;81.48;98273.53;4900480;29;20056;-72
2020/12/12 06:28:19;;;;;;;7.57;3.85;;;;;;;2.95;81.58;98273.56;4901198;29;20104;-72
2020/12/12 06:30:49;;;;;;;8.40;3.83;;;;;;;2.42;81.78;98201.00;4900873;29;20152;-72
2020/12/12 06:33:17;;;;;;;7.83;3.73;;;;;;;2.89;81.46;98283.56;4901013;29;20432;-72
2020/12/12 06:35:45;;;;;;;9.65;4.55;;;;;;;2.95;81.25;98281.94;4900673;29;20286;-71
2020/12/12 06:38:23;;;;;;;10.95;6.00;;;;;;;3.07;81.25;98288.75;4899751;29;20060;-71
2020/12/12 06:40:51;;;;;;;9.07;5.18;;;;;;;3.08;81.25;98285.38;4900710;29;20124;-71
2020/12/12 06:43:31;;;;;;;8.90;4.82;;;;;;;3.06;82.00;98284.53;4900406;29;20041;-71
2020/12/12 06:46:02;;;;;;;10.35;5.00;;;;;;;3.06;81.78;98287.91;4900525;29;20048;-72
2020/12/12 06:48:30;;;;;;;9.38;4.45;;;;;;;3.00;81.82;98274.44;4900712;29;20142;-72
2020/12/12 06:50:59;;;;;;;9.65;4.82;;;;;;;3.06;82.16;98282.00;4900757;29;20526;-71
2020/12/12 06:53:27;;;;;;;9.57;4.72;;;;;;;3.04;81.51;98288.72;4900403;29;20087;-72
2020/12/12 06:56:10;;;;;;;9.60;5.00;;;;;;;3.09;82.49;98292.13;4900419;29;20091;-72
2020/12/12 06:58:38;;;;;;;9.65;5.13;;;;;;;3.05;81.84;98276.13;4900148;29;20283;-71
2020/12/12 07:01:28;;;;;;;11.77;5.07;;;;;;;3.16;81.71;98291.31;4900255;29;20048;-72
2020/12/12 07:03:58;;;;;;;9.50;4.80;;;;;;;3.15;81.88;98279.53;4900138;29;20048;-72
2020/12/12 07:06:25;;;;;;;;;;;;;;;3.20;82.13;98295.53;4900597;29;20104;-72
2020/12/12 07:08:54;;;;;;;12.45;5.28;;;;;;;3.26;81.83;98296.41;4900025;29;20334;-72
2020/12/12 07:11:25;;;;;;;10.00;5.22;;;;;;;3.28;81.92;98304.00;4900100;29;20100;-72
2020/12/12 07:13:53;;;;;;;12.07;5.68;;;;;;;3.34;81.90;98296.44;4900079;29;20127;-72
2020/12/12 07:16:21;;;;;;;13.90;5.68;;;;;;;3.40;81.92;98306.59;4899909;29;20487;-72
2020/12/12 07:18:50;;;;;;;12.63;5.90;;;;;;;3.43;81.97;98294.00;4899966;29;20124;-71
2020/12/12 07:21:18;;;;;;;11.15;5.30;;;;;;;3.57;81.78;98315.09;4900094;29;20063;-72
2020/12/12 07:23:46;;;;;;;10.07;4.60;;;;;;;3.54;81.78;98291.50;4899926;29;20044;-72
2020/12/12 07:26:14;;;;;;;10.32;5.38;;;;;;;3.67;81.96;98314.25;4899761;29;20132;-72
2020/12/12 07:28:42;;;;;;;8.40;4.75;;;;;;;3.72;81.66;98311.78;4899780;29;20120;-72
2020/12/12 07:31:11;;;;;;;10.43;5.45;;;;;;;3.68;81.27;98298.31;4899599;29;20091;-72
2020/12/12 07:33:39;;;;;;;9.77;4.45;;;;;;;3.71;81.29;98305.91;4898719;29;20044;-72
2020/12/12 07:36:07;;;;;;;11.13;4.60;;;;;;;3.75;81.41;98307.59;4898808;29;20044;-72
2020/12/12 07:38:39;;;;;;;10.40;4.78;;;;;;;3.83;81.36;98305.94;4899595;29;20041;-72
2020/12/12 07:41:10;;;;;;;10.57;5.18;;;;;;;3.91;80.70;98309.31;4899522;29;20145;-72
2020/12/12 07:43:51;;;;;;;10.25;4.90;;;;;;;3.87;80.97;98300.06;4899562;29;20100;-71
2020/12/12 07:46:20;;;;;;;8.45;4.55;;;;;;;4.01;80.74;98311.03;4899398;29;20049;-72
2020/12/12 07:48:59;;;;;;;9.70;5.03;;;;;;;4.04;80.59;98318.63;4899330;29;20053;-72
2020/12/12 07:51:28;;;;;;;10.05;4.55;;;;;;;4.07;81.04;98321.16;4898946;29;20056;-72
2020/12/12 07:53:58;;;;;;;9.68;4.47;;;;;;;4.06;80.45;98313.56;4899213;29;20503;-72
2020/12/12 07:56:26;;;;;;;10.35;4.82;;;;;;;4.17;80.74;98322.03;4899238;29;20049;-72
2020/12/12 07:59:01;;;;;;;9.35;4.80;;;;;;;4.21;80.69;98323.72;4898977;29;20049;-72
2020/12/12 08:01:31;;;;;;;9.02;4.97;;;;;;;4.22;80.37;98324.56;4899468;29;20555;-72
2020/12/12 08:03:59;;;;;;;7.95;4.38;;;;;;;4.17;80.26;98321.19;4899073;29;20055;-72
2020/12/12 08:06:27;;;;;;;7.80;4.10;;;;;;;4.16;79.60;98309.38;4899002;29;20049;-72
2020/12/12 08:08:55;;;;;;;8.07;4.65;;;;;;;4.31;80.15;98330.47;4898586;29;20585;-72
2020/12/12 08:11:24;;;;;;;7.82;4.43;;;;;;;4.28;79.77;98327.09;4899332;29;20456;-72
2020/12/12 08:13:52;;;;;;;9.38;4.32;;;;;;;4.28;79.60;98322.03;4898919;29;20048;-72
2020/12/12 08:16:24;;;;;;;8.70;4.50;;;;;;;4.39;79.77;98333.03;4898938;29;20048;-72
2020/12/12 08:18:52;;;;;;;9.70;4.80;;;;;;;4.47;79.39;98341.44;4898845;29;20072;-72
2020/12/12 08:21:20;;;;;;;7.93;4.15;;;;;;;4.49;79.61;98334.69;4897833;29;20052;-72
2020/12/12 08:23:48;;;;;;;8.15;4.28;;;;;;;4.42;79.16;98335.53;4882444;29;20452;-72
2020/12/12 08:26:18;;;;;;;7.40;3.88;;;;;;;4.47;78.95;98341.44;4897328;29;20515;-72
2020/12/12 08:28:47;;;;;;;8.88;4.20;;;;;;;4.55;79.07;98339.78;4898672;29;20084;-72
2020/12/12 08:31:15;;;;;;;10.13;4.50;;;;;;;4.35;78.24;98317.00;4898727;29;20036;-72
2020/12/12 08:33:43;;;;;;;7.13;3.80;;;;;;;4.56;78.24;98343.97;4898536;29;20479;-72
2020/12/12 08:36:15;;;;;;;7.97;4.38;;;;;;;4.52;77.82;98352.41;4898835;29;20578;-72
2020/12/12 08:38:52;;;;;;;7.40;3.63;;;;;;;4.34;78.08;98334.69;4898648;29;20483;-72
2020/12/12 08:41:20;;;;;;;9.18;4.22;;;;;;;4.02;77.70;98305.16;4898531;29;20055;-72
2020/12/12 08:43:48;;;;;;;7.30;3.78;;;;;;;4.31;78.06;98354.88;4898549;29;20140;-72
2020/12/12 08:46:16;;;;;;;7.60;3.95;;;;;;;4.33;78.05;98364.16;4898678;29;20087;-72
2020/12/12 08:48:44;;;;;;;7.65;3.65;;;;;;;3.94;77.80;98300.91;4898812;29;20070;-72
2020/12/12 08:51:12;;;;;;;8.82;4.10;;;;;;;4.16;77.32;98349.78;4897427;29;20049;-72
2020/12/12 08:53:40;;;;;;;5.63;2.90;;;;;;;4.24;77.31;98368.34;4898453;29;20045;-72
2020/12/12 08:56:13;;;;;;;7.60;3.50;;;;;;;3.81;77.33;98291.63;4898353;29;20052;-72
2020/12/12 08:58:42;;;;;;;6.30;3.20;;;;;;;4.20;77.45;98366.66;4898550;29;20052;-72
2020/12/12 09:01:34;;;;;;;6.07;3.00;;;;;;;4.04;77.56;98365.72;4898883;29;20044;-72
2020/12/12 09:04:04;;;;;;;6.53;3.00;;;;;;;4.03;77.47;98380.03;4902309;29;20435;-72
2020/12/12 09:06:34;;;;;;;6.78;2.97;;;;;;;3.64;78.19;98308.38;4902122;29;20060;-71
2020/12/12 09:09:07;;;;;;;5.20;2.85;;;;;;;3.97;78.03;98364.88;4902624;29;20041;-72
2020/12/12 09:11:35;;;;;;;8.13;3.50;;;;;;;4.07;78.56;98376.69;4902127;29;20124;-72
2020/12/12 09:14:03;;;;;;;6.85;3.58;;;;;;;4.13;77.88;98373.34;4902170;29;20402;-72
2020/12/12 09:16:32;;;;;;;6.18;3.30;;;;;;;4.17;78.12;98377.56;4900954;29;20052;-72
2020/12/12 09:19:00;;;;;;;7.00;3.10;;;;;;;4.15;77.37;98373.34;4900751;29;20455;-72
2020/12/12 09:21:33;;;;;;;8.37;3.40;;;;;;;3.81;77.48;98316.88;4902037;29;20511;-72
2020/12/12 09:24:02;;;;;;;5.80;3.28;;;;;;;4.17;77.49;98371.69;4901975;29;20298;-72
2020/12/12 09:26:30;;;;;;;6.68;3.17;;;;;;;4.18;77.03;98369.16;4901772;29;20499;-72
2020/12/12 09:28:57;;;;;;;7.63;3.30;;;;;;;4.16;77.43;98369.97;4901807;29;20041;-72
2020/12/12 09:31:26;;;;;;;6.00;3.10;;;;;;;4.15;77.58;98363.25;4901910;29;20056;-72
2020/12/12 09:33:55;;;;;;;6.53;3.15;;;;;;;4.19;77.64;98364.94;4901747;29;20048;-72
2020/12/12 09:36:22;;;;;;;8.55;3.40;;;;;;;4.18;78.20;98369.16;4901810;29;20051;-71
2020/12/12 09:38:50;;;;;;;6.55;3.35;;;;;;;4.15;77.83;98369.13;4900467;29;20119;-72
2020/12/12 09:41:18;;;;;;;5.72;2.67;;;;;;;4.14;78.16;98366.59;4901707;29;20059;-72
2020/12/12 09:43:46;;;;;;;7.03;3.15;;;;;;;4.13;78.49;98364.94;4901634;29;20040;-72
2020/12/12 09:46:15;;;;;;;6.68;3.17;;;;;;;4.16;78.33;98365.78;4900317;29;20057;-72
2020/12/12 09:48:43;;;;;;;;;;;;;;;4.16;78.17;98364.94;4902258;29;20056;-72
2020/12/12 09:51:13;;;;;;;6.28;3.05;;;;;;;4.12;78.51;98345.56;4901759;29;20014;-72
2020/12/12 09:53:41;;;;;;;5.78;3.30;;;;;;;4.15;77.94;98355.69;4901477;29;20561;-72
2020/12/12 09:56:11;;;;;;;6.20;2.90;;;;;;;3.72;77.91;98287.38;4900211;29;20052;-72
2020/12/12 09:58:40;;;;;;;7.40;3.53;;;;;;;4.10;78.22;98334.63;4901488;29;20048;-72
2020/12/12 10:01:12;;;;;;;6.68;3.22;;;;;;;4.25;78.86;98362.47;4901356;29;20083;-72
2020/12/12 10:03:40;;;;;;;6.82;3.30;;;;;;;4.30;78.80;98373.38;4901407;29;20500;-72
2020/12/12 10:06:09;;;;;;;6.20;3.05;;;;;;;4.31;78.18;98364.97;4901060;29;20076;-72
2020/12/12 10:08:38;;;;;;;7.13;3.40;;;;;;;4.21;78.13;98355.69;4901235;29;20052;-72
2020/12/12 10:11:06;;;;;;;7.18;3.55;;;;;;;4.24;78.16;98368.34;4900078;29;20551;-72
2020/12/12 10:13:35;;;;;;;7.67;3.40;;;;;;;4.19;77.82;98375.91;4899897;29;20045;-72
2020/12/12 10:16:03;;;;;;;6.82;3.50;;;;;;;4.22;78.67;98370.00;4901219;29;20135;-72
2020/12/12 10:18:31;;;;;;;7.53;3.33;;;;;;;4.12;78.38;98375.88;4901047;29;20100;-71
2020/12/12 10:20:58;;;;;;;7.25;3.35;;;;;;;4.05;78.91;98378.34;4901145;29;20124;-72
2020/12/12 10:23:26;;;;;;;5.90;3.45;;;;;;;4.05;78.88;98372.47;4900889;29;20116;-72
2020/12/12 10:25:55;;;;;;;5.95;3.13;;;;;;;3.99;79.33;98378.34;4899455;29;20056;-71
2020/12/12 10:28:23;;;;;;;7.00;3.20;;;;;;;4.00;79.61;98379.19;4900825;29;20478;-72
2020/12/12 10:30:51;;;;;;;6.85;3.60;;;;;;;4.02;79.15;98380.03;4900770;29;20055;-72
2020/12/12 10:33:19;;;;;;;6.05;3.15;;;;;;;4.05;79.58;98378.34;4899566;29;20080;-72
2020/12/12 10:35:47;;;;;;;7.55;3.75;;;;;;;4.08;79.56;98382.56;4900790;29;20081;-72
2020/12/12 10:38:15;;;;;;;6.53;3.38;;;;;;;4.06;79.40;98380.03;4900597;29;20064;-72
2020/12/12 10:40:47;;;;;;;7.80;3.63;;;;;;;4.08;79.15;98377.50;4900673;29;20048;-72
2020/12/12 10:43:16;;;;;;;7.90;3.70;;;;;;;4.02;79.45;98363.22;4900558;29;20108;-71
2020/12/12 10:45:45;;;;;;;7.10;3.30;;;;;;;3.93;79.84;98353.09;4901147;29;20067;-72
2020/12/12 10:48:14;;;;;;;7.28;3.38;;;;;;;4.04;79.76;98379.19;4900463;29;20092;-72
2020/12/12 10:50:42;;;;;;;7.60;3.58;;;;;;;4.01;79.47;98379.19;4900535;29;20067;-72
2020/12/12 10:53:10;;;;;;;7.20;3.47;;;;;;;4.03;79.44;98382.56;4899609;29;20076;-72
2020/12/12 10:55:38;;;;;;;7.63;3.42;;;;;;;3.96;79.49;98365.69;4900673;29;20054;-72
2020/12/12 10:58:06;;;;;;;10.00;5.18;;;;;;;4.10;79.79;98380.91;4899195;29;20048;-72
2020/12/12 11:00:42;;;;;;;8.98;4.75;;;;;;;4.18;79.83;98368.28;4900253;29;20057;-72
2020/12/12 11:03:10;;;;;;;8.65;3.92;;;;;;;4.17;79.73;98377.56;4899207;29;20048;-72
2020/12/12 11:05:38;;;;;;;8.13;3.78;;;;;;;4.16;79.34;98370.81;4900108;29;20048;-72
2020/12/12 11:08:05;;;;;;;7.57;3.83;;;;;;;4.29;79.89;98376.75;4900490;29;20120;-72
2020/12/12 11:10:33;;;;;;;9.40;4.22;;;;;;;4.29;79.31;98376.75;4900036;29;20048;-72
2020/12/12 11:13:06;;;;;;;9.30;4.10;;;;;;;4.23;79.24;98376.72;4900163;29;20048;-72
2020/12/12 11:15:38;;;;;;;7.18;3.50;;;;;;;4.24;79.81;98368.34;4899913;29;20093;-72
2020/12/12 11:18:07;;;;;;;7.82;4.03;;;;;;;4.10;78.92;98369.97;4900031;29;20052;-72
2020/12/12 11:20:34;;;;;;;9.35;4.57;;;;;;;4.11;78.80;98386.78;4899812;29;20452;-72
2020/12/12 11:23:02;;;;;;;7.88;4.10;;;;;;;4.05;79.01;98372.47;4899024;29;20041;-72
2020/12/12 11:25:30;;;;;;;9.48;4.53;;;;;;;4.17;79.23;98382.63;4899033;29;20049;-73
2020/12/12 11:27:58;;;;;;;7.90;3.83;;;;;;;4.16;79.71;98373.34;4900432;29;20123;-72
2020/12/12 11:30:26;;;;;;;8.13;3.83;;;;;;;4.02;79.14;98373.31;4899694;29;20052;-72
2020/12/12 11:32:55;;;;;;;7.50;3.90;;;;;;;3.98;79.70;98371.59;4898567;29;20138;-72
2020/12/12 11:35:28;;;;;;;7.53;4.25;;;;;;;3.77;79.58;98351.31;4898507;29;20060;-72
2020/12/12 11:40:44;;;;;;;9.82;4.80;;;;;;;3.81;79.80;98363.13;4899639;29;20054;-72
2020/12/12 11:46:13;;;;;;;9.25;4.63;;;;;;;3.99;80.38;98388.44;4899426;29;20459;-72
2020/12/12 11:48:45;;;;;;;6.90;3.67;;;;;;;3.97;80.27;98380.00;4899412;29;20139;-72
2020/12/12 11:51:14;;;;;;;7.82;4.22;;;;;;;4.05;79.76;98388.44;4899406;29;20048;-71
2020/12/12 11:53:42;;;;;;;8.02;3.72;;;;;;;4.01;79.82;98386.75;4899260;29;20052;-72